Time;durP1;ratioP1;P1;durP2;ratioP2;P2;SDS_P1;SDS_P2;PMS_P1;PMS_P2;Temp;Humidity;BMP_temperature;BMP_pressure;BME280_temperature;BME280_humidity;BME280_pressure;Samples;Min_cycle;Max_cycle;Signal;HPM_P1;HPM_P2
2021/06/01 00:00:42;;;;;;;1.05;0.10;;;14.50;78.90;;;;;;5022022;28;20449;-86
2021/06/01 00:03:07;;;;;;;1.55;0.17;;;14.40;78.30;;;;;;5023343;28;20025;-86
2021/06/01 00:05:33;;;;;;;0.55;0.00;;;14.70;78.00;;;;;;5021707;28;20026;-86
2021/06/01 00:07:58;;;;;;;3.78;0.60;;;14.30;77.40;;;;;;5021858;28;20101;-86
2021/06/01 00:10:24;;;;;;;0.90;0.10;;;14.30;77.30;;;;;;5021828;28;20025;-86
2021/06/01 00:12:49;;;;;;;0.55;0.10;;;14.30;77.00;;;;;;5039812;28;20033;-86
2021/06/01 00:15:15;;;;;;;0.70;0.00;;;15.10;77.40;;;;;;5040452;28;20029;-86
2021/06/01 00:17:41;;;;;;;0.20;0.00;;;14.30;76.30;;;;;;5017681;28;20040;-86
2021/06/01 00:20:10;;;;;;;1.42;0.10;;;14.30;76.00;;;;;;5035354;28;20525;-86
2021/06/01 00:22:36;;;;;;;0.98;0.00;;;14.30;76.00;;;;;;5037235;28;20096;-86
2021/06/01 00:25:03;;;;;;;0.40;0.10;;;14.30;75.80;;;;;;5020541;28;20030;-86
2021/06/01 00:27:29;;;;;;;1.75;0.20;;;14.30;75.70;;;;;;5021858;28;20041;-87
2021/06/01 00:29:54;;;;;;;14.70;0.30;;;14.30;75.40;;;;;;5040586;28;20021;-86
2021/06/01 00:32:20;;;;;;;1.25;0.00;;;14.30;74.90;;;;;;5021282;28;20196;-86
2021/06/01 00:34:45;;;;;;;0.75;0.00;;;14.70;75.50;;;;;;5021977;28;20021;-86
2021/06/01 00:37:11;;;;;;;0.57;0.00;;;14.30;75.50;;;;;;5038660;28;20116;-86
2021/06/01 00:39:36;;;;;;;0.65;0.10;;;14.20;75.30;;;;;;5022027;28;20061;-86
2021/06/01 00:42:02;;;;;;;0.80;0.00;;;14.10;75.30;;;;;;5021759;28;20041;-86
2021/06/01 00:44:28;;;;;;;1.50;0.05;;;12.60;73.50;;;;;;5022989;28;20022;-86
2021/06/01 00:46:53;;;;;;;1.23;0.00;;;14.10;75.00;;;;;;5024452;28;20034;-86
2021/06/01 00:49:19;;;;;;;2.45;0.47;;;14.10;75.20;;;;;;5029567;28;20033;-86
2021/06/01 00:51:46;;;;;;;0.65;0.10;;;13.90;75.00;;;;;;5033113;28;20028;-86
2021/06/01 00:54:12;;;;;;;0.85;0.10;;;13.90;74.60;;;;;;5033164;28;20026;-87
2021/06/01 00:56:42;;;;;;;0.13;0.00;;;14.20;74.60;;;;;;5040030;28;20038;-86
2021/06/01 00:59:08;;;;;;;1.10;0.00;;;14.10;74.80;;;;;;5041713;28;20044;-86
2021/06/01 01:01:33;;;;;;;0.75;0.00;;;14.20;74.50;;;;;;5021759;28;20104;-86
2021/06/01 01:03:59;;;;;;;0.10;0.00;;;14.10;74.60;;;;;;5022054;28;20120;-86
2021/06/01 01:06:58;;;;;;;0.82;0.10;;;15.70;75.50;;;;;;5022685;28;20036;-87
2021/06/01 01:09:36;;;;;;;0.32;0.20;;;14.10;74.20;;;;;;5021838;28;20034;-86
2021/06/01 01:12:17;;;;;;;0.30;0.10;;;14.10;73.30;;;;;;5023730;28;20021;-85
2021/06/01 01:14:49;;;;;;;1.42;0.30;;;14.10;73.70;;;;;;5022105;28;20022;-86
2021/06/01 01:17:18;;;;;;;1.30;0.20;;;14.10;73.40;;;;;;5021840;28;20026;-86
2021/06/01 01:20:10;;;;;;;0.47;0.10;;;15.80;73.80;;;;;;5020098;28;20048;-86
2021/06/01 01:22:41;;;;;;;2.13;0.20;;;14.10;72.60;;;;;;5039250;28;20021;-86
2021/06/01 01:25:19;;;;;;;0.73;0.10;;;14.00;72.80;;;;;;5037130;28;20048;-87
2021/06/01 01:28:16;;;;;;;0.57;0.10;;;14.10;72.20;;;;;;5016645;28;20068;-86
2021/06/01 01:30:52;;;;;;;0.40;0.00;;;14.00;71.90;;;;;;5020752;28;20132;-84
2021/06/01 01:33:22;;;;;;;0.20;0.00;;;14.00;72.00;;;;;;5006401;28;20041;-84
2021/06/01 01:35:51;;;;;;;0.20;0.10;;;14.00;71.90;;;;;;5030338;28;20025;-86
2021/06/01 01:38:22;;;;;;;0.55;0.10;;;14.00;72.00;;;;;;5021958;28;20025;-87
2021/06/01 01:40:48;;;;;;;0.63;0.00;;;14.00;71.90;;;;;;5040030;28;20045;-84
2021/06/01 01:43:16;;;;;;;0.77;0.00;;;14.00;72.00;;;;;;5024196;28;20052;-84
2021/06/01 01:45:48;;;;;;;1.20;0.10;;;13.90;71.60;;;;;;5041310;28;20021;-85
2021/06/01 01:51:14;;;;;;;0.60;0.00;;;13.80;72.00;;;;;;5041443;28;20088;-84
2021/06/01 01:53:48;;;;;;;1.77;0.10;;;13.80;72.20;;;;;;5042555;28;20061;-84
2021/06/01 01:56:16;;;;;;;9.07;0.75;;;13.80;72.20;;;;;;5024077;28;20025;-84
2021/06/01 01:58:42;;;;;;;6.60;0.10;;;13.80;72.70;;;;;;5023898;28;20115;-84
2021/06/01 02:01:09;;;;;;;1.48;0.10;;;13.40;72.70;;;;;;5023884;28;20264;-84
2021/06/01 02:03:38;;;;;;;0.30;0.00;;;13.70;73.00;;;;;;5044189;28;20033;-84
2021/06/01 02:06:04;;;;;;;0.10;0.00;;;13.40;72.90;;;;;;5044738;28;20006;-85
2021/06/01 02:08:30;;;;;;;0.80;0.10;;;13.60;73.60;;;;;;5026787;28;20514;-84
2021/06/01 02:10:55;;;;;;;0.60;0.00;;;13.50;73.70;;;;;;5043047;28;20029;-84
2021/06/01 02:13:21;;;;;;;1.85;0.00;;;16.40;76.50;;;;;;5026828;28;20034;-84
2021/06/01 02:15:46;;;;;;;0.52;0.20;;;14.10;75.00;;;;;;5026135;28;20459;-84
2021/06/01 02:18:12;;;;;;;0.52;0.25;;;13.90;74.70;;;;;;5044241;28;20105;-84
2021/06/01 02:20:38;;;;;;;1.73;0.10;;;13.40;75.30;;;;;;5025867;28;20032;-84
2021/06/01 02:26:00;;;;;;;1.60;0.13;;;13.30;75.30;;;;;;5043491;28;20033;-84
2021/06/01 02:28:33;;;;;;;1.38;0.00;;;13.30;75.50;;;;;;5025886;28;20112;-84
2021/06/01 02:31:03;;;;;;;1.13;0.10;;;13.20;75.60;;;;;;5028518;28;20152;-84
2021/06/01 02:33:31;;;;;;;4.00;0.10;;;13.20;76.00;;;;;;5047602;28;20036;-84
2021/06/01 02:36:00;;;;;;;2.07;0.10;;;13.10;76.30;;;;;;5030912;28;20048;-85
2021/06/01 02:38:28;;;;;;;0.88;0.32;;;13.10;77.10;;;;;;5029899;28;20287;-84
2021/06/01 02:40:55;;;;;;;0.40;0.08;;;13.00;77.00;;;;;;5064060;22;20523;-84
2021/06/01 02:43:21;;;;;;;1.77;0.03;;;14.20;77.50;;;;;;5038170;28;20014;-84
2021/06/01 02:45:48;;;;;;;1.02;0.10;;;12.90;77.40;;;;;;5042156;28;20035;-85
2021/06/01 02:48:17;;;;;;;0.15;0.00;;;12.90;78.40;;;;;;5055785;28;20030;-84
2021/06/01 02:50:45;;;;;;;0.30;0.05;;;14.80;80.00;;;;;;5047379;28;20043;-85
2021/06/01 02:53:12;;;;;;;1.02;0.10;;;12.60;78.40;;;;;;5027835;28;20026;-85
2021/06/01 02:55:38;;;;;;;1.73;0.10;;;12.80;79.00;;;;;;5028870;28;20032;-84
2021/06/01 02:58:07;;;;;;;1.35;0.15;;;12.60;79.70;;;;;;5027561;28;20050;-84
2021/06/01 03:00:35;;;;;;;2.83;0.10;;;12.70;79.40;;;;;;5029814;28;20027;-84
2021/06/01 03:03:08;;;;;;;0.35;0.00;;;12.70;80.00;;;;;;5045757;28;20052;-85
2021/06/01 03:05:34;;;;;;;1.10;0.10;;;12.70;80.90;;;;;;5044031;28;20170;-85
2021/06/01 03:08:29;;;;;;;2.15;0.20;;;12.70;80.80;;;;;;5045842;28;20025;-85
2021/06/01 03:11:01;;;;;;;0.73;0.20;;;12.60;80.50;;;;;;5028713;28;20038;-85
2021/06/01 03:13:27;;;;;;;2.97;0.30;;;12.60;80.60;;;;;;5043610;28;20025;-84
2021/06/01 03:15:53;;;;;;;0.30;0.13;;;12.60;80.50;;;;;;5043218;28;20048;-84
2021/06/01 03:18:19;;;;;;;1.10;0.10;;;12.60;80.70;;;;;;5044031;28;20017;-85
2021/06/01 03:20:45;;;;;;;3.45;0.10;;;12.50;81.00;;;;;;5037137;28;20018;-86
2021/06/01 03:23:11;;;;;;;0.95;0.20;;;12.40;81.20;;;;;;5045727;28;20025;-85
2021/06/01 03:25:37;;;;;;;3.55;0.20;;;12.50;81.90;;;;;;5044966;28;20025;-84
2021/06/01 03:28:03;;;;;;;0.55;0.00;;;12.50;82.80;;;;;;5046993;28;20049;-84
2021/06/01 03:30:28;;;;;;;2.72;0.38;;;12.50;82.80;;;;;;5033297;28;20033;-85
2021/06/01 03:32:56;;;;;;;0.55;0.10;;;12.40;83.60;;;;;;5042901;28;20037;-85
2021/06/01 03:35:23;;;;;;;1.45;0.47;;;13.90;84.20;;;;;;5043980;28;20025;-85
2021/06/01 03:37:48;;;;;;;0.93;0.30;;;12.40;83.70;;;;;;5042283;28;20124;-85
2021/06/01 03:40:14;;;;;;;1.75;0.40;;;12.40;84.30;;;;;;5041059;28;20064;-85
2021/06/01 03:42:40;;;;;;;3.20;0.57;;;12.30;84.40;;;;;;5029179;28;20519;-85
2021/06/01 03:45:06;;;;;;;1.67;0.17;;;12.30;85.40;;;;;;5024236;28;20024;-85
2021/06/01 03:47:32;;;;;;;2.60;0.10;;;12.30;85.90;;;;;;5022251;28;20072;-85
2021/06/01 03:49:57;;;;;;;0.65;0.10;;;12.20;86.50;;;;;;5030037;28;20029;-85
2021/06/01 03:52:23;;;;;;;0.52;0.30;;;12.10;86.40;;;;;;5029450;28;20398;-85
2021/06/01 03:54:49;;;;;;;0.57;0.10;;;12.20;87.30;;;;;;5022004;28;20026;-85
2021/06/01 03:57:22;;;;;;;1.77;0.10;;;12.20;88.20;;;;;;5024680;28;20064;-84
2021/06/01 03:59:48;;;;;;;0.82;0.15;;;12.10;88.80;;;;;;5025902;28;20021;-84
2021/06/01 04:02:14;;;;;;;1.85;0.30;;;12.20;88.60;;;;;;5041709;28;20028;-84
2021/06/01 04:04:40;;;;;;;2.08;0.20;;;12.20;89.60;;;;;;5039993;28;20377;-84
2021/06/01 04:07:05;;;;;;;2.83;0.13;;;12.20;90.40;;;;;;5040469;28;20394;-84
2021/06/01 04:09:32;;;;;;;0.65;0.17;;;12.30;90.10;;;;;;5040073;28;20021;-84
2021/06/01 04:11:58;;;;;;;0.60;0.20;;;12.30;90.20;;;;;;5040705;28;20021;-84
2021/06/01 04:14:23;;;;;;;1.25;0.20;;;12.30;90.50;;;;;;5039711;28;20029;-84
2021/06/01 04:16:49;;;;;;;0.90;0.15;;;12.30;90.60;;;;;;5039826;28;20025;-84
2021/06/01 04:19:15;;;;;;;0.60;0.15;;;12.40;90.30;;;;;;5034117;28;20025;-84
2021/06/01 04:21:44;;;;;;;0.50;0.13;;;12.90;90.40;;;;;;5021268;28;20025;-84
2021/06/01 04:24:10;;;;;;;;;;;12.50;90.10;;;;;;5021127;28;20072;-84
2021/06/01 04:26:36;;;;;;;0.73;0.20;;;12.60;89.80;;;;;;5021246;28;19955;-84
2021/06/01 04:29:02;;;;;;;1.17;0.20;;;12.60;90.10;;;;;;5027534;28;20029;-84
2021/06/01 04:31:28;;;;;;;1.05;0.40;;;12.70;90.10;;;;;;5041236;28;20065;-84
2021/06/01 04:33:53;;;;;;;1.50;0.10;;;12.80;90.10;;;;;;5038181;28;20026;-84
2021/06/01 04:36:19;;;;;;;0.50;0.10;;;12.90;90.10;;;;;;5042125;28;20021;-84
2021/06/01 04:38:44;;;;;;;1.45;0.20;;;12.90;89.30;;;;;;5038609;28;20022;-84
2021/06/01 04:41:10;;;;;;;6.05;0.20;;;13.00;88.60;;;;;;5019104;28;20061;-84
2021/06/01 04:43:36;;;;;;;0.50;0.30;;;13.10;88.00;;;;;;5021801;28;20478;-84
2021/06/01 04:46:01;;;;;;;0.50;0.10;;;13.20;88.00;;;;;;5020022;28;20022;-84
2021/06/01 04:48:27;;;;;;;1.10;0.20;;;13.20;87.40;;;;;;5021748;28;20037;-85
2021/06/01 04:50:53;;;;;;;1.77;0.10;;;13.40;87.30;;;;;;5025518;28;20025;-84
2021/06/01 04:53:18;;;;;;;0.88;0.20;;;13.50;86.80;;;;;;5023801;28;20026;-84
2021/06/01 04:55:44;;;;;;;2.53;0.10;;;13.60;86.30;;;;;;5026508;28;20049;-84
2021/06/01 04:58:09;;;;;;;2.17;0.05;;;13.70;85.50;;;;;;5024683;28;20030;-84
2021/06/01 05:00:35;;;;;;;2.05;0.10;;;13.80;85.10;;;;;;5024982;28;20030;-84
2021/06/01 05:03:00;;;;;;;0.95;0.10;;;14.00;84.70;;;;;;5024265;28;20029;-84
2021/06/01 05:05:26;;;;;;;1.50;0.20;;;14.30;84.20;;;;;;5024110;28;20120;-84
2021/06/01 05:07:54;;;;;;;2.92;0.38;;;14.20;83.70;;;;;;5025157;28;20093;-84
2021/06/01 05:10:19;;;;;;;2.70;0.08;;;14.30;83.90;;;;;;5041565;28;20026;-84
2021/06/01 05:12:45;;;;;;;0.68;0.20;;;14.50;83.60;;;;;;5045575;28;20029;-85
2021/06/01 05:15:11;;;;;;;1.17;0.10;;;14.70;83.90;;;;;;5043571;28;20036;-84
2021/06/01 05:17:37;;;;;;;3.13;0.13;;;14.80;83.80;;;;;;5043552;28;20025;-84
2021/06/01 05:20:03;;;;;;;2.22;0.20;;;15.00;82.20;;;;;;5030835;28;20076;-85
2021/06/01 05:22:29;;;;;;;0.52;0.10;;;15.10;80.70;;;;;;5024101;28;20049;-84
2021/06/01 05:24:54;;;;;;;3.63;0.10;;;15.30;80.00;;;;;;5025448;28;20083;-84
2021/06/01 05:27:20;;;;;;;0.65;0.00;;;15.40;81.30;;;;;;5022909;28;20036;-84
2021/06/01 05:29:53;;;;;;;1.05;0.17;;;15.60;78.40;;;;;;5017954;28;20056;-85
2021/06/01 05:34:47;;;;;;;0.30;0.00;;;15.90;78.20;;;;;;5019162;28;20045;-84
2021/06/01 05:37:13;;;;;;;;;;;16.10;77.60;;;;;;5019134;28;20018;-85
2021/06/01 05:39:38;;;;;;;1.40;0.10;;;19.10;78.40;;;;;;5016703;28;19912;-84
2021/06/01 05:42:04;;;;;;;2.80;0.20;;;16.40;75.60;;;;;;5016651;28;20486;-85
2021/06/01 05:44:33;;;;;;;0.95;0.10;;;16.60;73.70;;;;;;5018694;28;20018;-85
2021/06/01 05:46:59;;;;;;;0.63;0.10;;;17.90;74.50;;;;;;5034626;28;20030;-84
2021/06/01 05:49:24;;;;;;;2.65;0.10;;;16.70;72.10;;;;;;5038537;28;20431;-84
2021/06/01 05:51:50;;;;;;;1.35;0.20;;;17.00;71.70;;;;;;5040245;28;20026;-84
2021/06/01 05:54:17;;;;;;;3.80;0.65;;;17.00;71.30;;;;;;5035703;28;20108;-84
2021/06/01 05:56:42;;;;;;;1.05;0.10;;;17.20;70.80;;;;;;5038785;28;20025;-85
2021/06/01 05:59:08;;;;;;;1.13;0.10;;;20.60;71.50;;;;;;5040956;28;20081;-84
2021/06/01 06:01:34;;;;;;;0.93;0.25;;;17.30;69.00;;;;;;5053241;28;20029;-85
2021/06/01 06:03:59;;;;;;;4.28;0.43;;;19.60;68.90;;;;;;5035519;28;20032;-86
2021/06/01 06:06:25;;;;;;;1.58;0.25;;;17.40;68.20;;;;;;5028235;28;20010;-86
2021/06/01 06:08:51;;;;;;;4.75;0.82;;;17.50;67.40;;;;;;5045194;28;20028;-84
2021/06/01 06:11:16;;;;;;;6.10;0.50;;;15.90;67.30;;;;;;5030715;28;20025;-86
2021/06/01 06:13:42;;;;;;;4.88;0.28;;;19.90;68.00;;;;;;5032073;28;20104;-86
2021/06/01 06:16:08;;;;;;;4.38;0.45;;;17.70;66.70;;;;;;5034982;28;20025;-86
2021/06/01 06:18:42;;;;;;;1.95;0.45;;;17.90;66.10;;;;;;5040155;28;20033;-86
2021/06/01 06:21:08;;;;;;;1.67;0.25;;;19.90;65.90;;;;;;5039328;28;20064;-86
2021/06/01 06:23:41;;;;;;;3.35;0.63;;;18.00;64.40;;;;;;5039617;28;20052;-85
2021/06/01 06:26:07;;;;;;;0.85;0.10;;;19.10;66.50;;;;;;5038045;28;20052;-84
2021/06/01 06:28:33;;;;;;;1.10;0.20;;;18.20;64.10;;;;;;5041832;28;20025;-86
2021/06/01 06:30:59;;;;;;;2.35;0.10;;;18.30;63.90;;;;;;5037895;28;20025;-85
2021/06/01 06:33:25;;;;;;;2.85;0.10;;;19.30;62.60;;;;;;5040370;28;20052;-86
2021/06/01 06:35:52;;;;;;;1.75;0.25;;;18.50;63.10;;;;;;5024660;28;20456;-87
2021/06/01 06:38:18;;;;;;;1.73;0.00;;;18.60;63.20;;;;;;5022839;28;20036;-85
2021/06/01 06:40:49;;;;;;;0.20;0.00;;;18.70;62.50;;;;;;5019693;28;20028;-84
2021/06/01 06:43:15;;;;;;;3.58;0.20;;;18.80;61.60;;;;;;5019255;28;20109;-86
2021/06/01 06:45:41;;;;;;;0.75;0.10;;;19.70;62.00;;;;;;5017893;28;20049;-86
2021/06/01 06:48:09;;;;;;;2.17;0.17;;;19.20;60.00;;;;;;5022548;28;20034;-85
2021/06/01 06:50:36;;;;;;;0.63;0.10;;;19.20;59.50;;;;;;5022013;28;20048;-84
2021/06/01 06:53:03;;;;;;;1.30;0.10;;;20.60;60.00;;;;;;5026974;28;20026;-85
2021/06/01 06:55:29;;;;;;;1.42;0.00;;;19.50;59.40;;;;;;5025396;28;20030;-89
2021/06/01 06:57:55;;;;;;;0.20;0.10;;;19.50;58.70;;;;;;5023791;28;20103;-85
2021/06/01 07:00:23;;;;;;;2.22;0.10;;;19.60;58.40;;;;;;5022507;28;20057;-88
2021/06/01 07:02:49;;;;;;;1.17;0.10;;;19.80;58.40;;;;;;5037434;28;20017;-85
2021/06/01 07:05:18;;;;;;;0.40;0.10;;;19.80;58.40;;;;;;5039885;28;20108;-86
2021/06/01 07:07:46;;;;;;;1.48;0.03;;;20.00;58.60;;;;;;5040832;28;20386;-87
2021/06/01 07:10:13;;;;;;;2.17;0.10;;;23.00;58.60;;;;;;5037564;28;20109;-85
2021/06/01 07:12:43;;;;;;;3.83;0.35;;;20.20;57.20;;;;;;5043340;28;20488;-85
2021/06/01 07:15:21;;;;;;;0.75;0.10;;;20.40;56.30;;;;;;5016643;28;20065;-87
2021/06/01 07:17:47;;;;;;;0.30;0.10;;;20.50;55.00;;;;;;5030526;28;20025;-85
2021/06/01 07:20:15;;;;;;;3.13;0.32;;;20.50;54.80;;;;;;5038279;28;20018;-87
2021/06/01 07:22:41;;;;;;;0.68;0.00;;;20.60;54.20;;;;;;5038294;28;20024;-87
2021/06/01 07:25:10;;;;;;;0.40;0.08;;;20.70;53.80;;;;;;5037157;28;20022;-86
2021/06/01 07:27:36;;;;;;;1.65;0.47;;;20.80;54.20;;;;;;5036093;28;20037;-88
2021/06/01 07:30:04;;;;;;;2.15;0.10;;;22.00;53.50;;;;;;5021469;28;20057;-85
2021/06/01 07:32:29;;;;;;;3.78;0.00;;;20.90;52.80;;;;;;5020322;28;20024;-86
2021/06/01 07:34:56;;;;;;;1.08;0.10;;;20.90;52.70;;;;;;5018261;28;20491;-87
2021/06/01 07:37:22;;;;;;;1.80;0.10;;;21.30;52.30;;;;;;5018659;28;20058;-86
2021/06/01 07:39:47;;;;;;;1.00;0.15;;;23.50;53.00;;;;;;5023048;28;20029;-86
2021/06/01 07:42:13;;;;;;;1.20;0.10;;;21.20;51.90;;;;;;5038763;28;20375;-87
2021/06/01 07:44:39;;;;;;;3.13;0.00;;;21.30;52.30;;;;;;5039279;28;20048;-86
2021/06/01 07:47:04;;;;;;;1.08;0.20;;;22.00;52.80;;;;;;5037601;28;20083;-86
2021/06/01 07:49:30;;;;;;;2.15;0.40;;;21.50;52.30;;;;;;5039136;28;20052;-86
2021/06/01 07:51:56;;;;;;;1.95;0.10;;;21.60;51.80;;;;;;5036973;28;20546;-87
2021/06/01 07:54:21;;;;;;;1.02;0.00;;;21.70;52.40;;;;;;5038030;28;20026;-86
2021/06/01 07:56:47;;;;;;;0.28;0.00;;;21.80;51.10;;;;;;5036523;28;20123;-86
2021/06/01 07:59:13;;;;;;;0.38;0.00;;;23.40;52.50;;;;;;5038200;28;20021;-86
2021/06/01 08:01:39;;;;;;;3.13;0.52;;;22.10;51.10;;;;;;5040345;28;20049;-86
2021/06/01 08:04:05;;;;;;;1.98;0.10;;;22.30;51.40;;;;;;5041636;28;20021;-85
2021/06/01 08:06:36;;;;;;;2.10;0.40;;;22.40;51.30;;;;;;5039215;28;20070;-86
2021/06/01 08:09:02;;;;;;;0.35;0.10;;;25.70;51.10;;;;;;5041953;28;20017;-86
2021/06/01 08:11:28;;;;;;;5.28;0.28;;;24.50;50.00;;;;;;5042186;28;20386;-85
2021/06/01 08:13:53;;;;;;;0.80;0.10;;;22.60;50.20;;;;;;5037921;28;20194;-85
2021/06/01 08:16:19;;;;;;;0.68;0.15;;;24.80;51.50;;;;;;5039126;28;20027;-85
2021/06/01 08:19:01;;;;;;;0.30;0.00;;;22.80;50.20;;;;;;5041977;28;20029;-86
2021/06/01 08:21:38;;;;;;;0.43;0.03;;;22.90;49.00;;;;;;5039762;28;20031;-86
2021/06/01 08:24:04;;;;;;;1.95;0.10;;;23.20;47.80;;;;;;5038753;28;20063;-86
2021/06/01 08:26:30;;;;;;;0.85;0.00;;;23.00;46.50;;;;;;5038995;28;20032;-86
2021/06/01 08:28:55;;;;;;;0.65;0.00;;;23.00;47.60;;;;;;5039155;28;20021;-86
2021/06/01 08:31:21;;;;;;;2.05;0.10;;;23.10;48.40;;;;;;5039638;28;20430;-86
2021/06/01 08:33:46;;;;;;;1.55;0.05;;;23.30;48.80;;;;;;5037994;28;20029;-85
2021/06/01 08:36:12;;;;;;;0.20;0.10;;;23.30;46.70;;;;;;5038117;28;20029;-86
2021/06/01 08:38:39;;;;;;;0.75;0.10;;;23.40;46.10;;;;;;5037954;28;20029;-86
2021/06/01 08:41:06;;;;;;;0.88;0.10;;;23.40;47.60;;;;;;5038078;28;20025;-86
2021/06/01 08:43:32;;;;;;;1.55;0.20;;;24.30;47.10;;;;;;5040142;28;20075;-86
2021/06/01 08:45:58;;;;;;;1.95;0.20;;;24.90;49.00;;;;;;5037885;28;20025;-86
2021/06/01 08:48:26;;;;;;;1.23;0.10;;;25.00;47.40;;;;;;5036056;28;20025;-86
2021/06/01 08:50:53;;;;;;;0.63;0.00;;;23.80;46.50;;;;;;5038748;28;20026;-86
2021/06/01 08:53:19;;;;;;;1.10;0.40;;;23.60;46.30;;;;;;5038310;28;20421;-86
2021/06/01 08:55:46;;;;;;;0.70;0.00;;;25.80;48.30;;;;;;5038093;28;20025;-88
2021/06/01 08:58:17;;;;;;;1.48;0.10;;;22.50;46.30;;;;;;5036763;28;20033;-86
2021/06/01 09:00:43;;;;;;;0.68;0.00;;;25.80;45.90;;;;;;5036345;28;20014;-88
2021/06/01 09:03:15;;;;;;;2.30;0.00;;;24.20;43.50;;;;;;5034846;28;20066;-88
2021/06/01 09:06:08;;;;;;;0.55;0.10;;;24.20;44.10;;;;;;5037454;28;20124;-88
2021/06/01 09:22:51;;;;;;;0.63;0.20;;;24.70;40.80;;;;;;5035862;28;20083;-90
2021/06/01 09:27:54;;;;;;;5.00;0.15;;;24.90;40.00;;;;;;5037612;28;20454;-88
2021/06/01 09:30:39;;;;;;;1.30;0.00;;;24.90;39.30;;;;;;5035279;28;20028;-88
2021/06/01 09:33:18;;;;;;;1.05;0.00;;;25.00;38.50;;;;;;5033796;28;20033;-90
2021/06/01 09:35:54;;;;;;;0.77;0.10;;;25.10;38.90;;;;;;5034148;28;20423;-88
2021/06/01 09:38:44;;;;;;;0.50;0.20;;;25.10;37.50;;;;;;5033503;28;20017;-86
2021/06/01 09:41:16;;;;;;;1.85;0.08;;;25.20;38.30;;;;;;5034545;28;20108;-89
2021/06/01 09:43:56;;;;;;;0.50;0.00;;;25.40;38.50;;;;;;5034405;28;20076;-86
2021/06/01 09:46:44;;;;;;;1.05;0.20;;;25.50;36.60;;;;;;5033739;28;20022;-89
2021/06/01 09:49:12;;;;;;;1.08;0.10;;;25.60;36.80;;;;;;5034161;28;20021;-87
2021/06/01 09:51:44;;;;;;;;;;;25.60;37.80;;;;;;5035417;28;20096;-87
2021/06/01 09:54:30;;;;;;;0.45;0.00;;;27.90;40.20;;;;;;5034980;28;19988;-87
2021/06/01 09:56:57;;;;;;;1.70;0.35;;;25.70;36.90;;;;;;5033680;28;20025;-87
2021/06/01 09:59:25;;;;;;;1.38;0.10;;;26.40;38.20;;;;;;5035183;28;20021;-87
2021/06/01 10:01:50;;;;;;;1.98;0.00;;;27.80;38.80;;;;;;5034411;28;20056;-86
2021/06/01 10:04:26;;;;;;;0.80;0.00;;;27.40;37.70;;;;;;5034706;28;20017;-86
2021/06/01 10:06:53;;;;;;;1.02;0.10;;;25.90;36.00;;;;;;5033962;28;20033;-87
2021/06/01 10:09:19;;;;;;;1.60;0.00;;;26.00;35.60;;;;;;5034392;28;20034;-87
2021/06/01 10:11:58;;;;;;;1.27;0.03;;;26.10;34.50;;;;;;5033802;28;20025;-87
2021/06/01 10:14:25;;;;;;;1.77;0.10;;;28.30;36.40;;;;;;5037770;28;20025;-88
2021/06/01 10:16:52;;;;;;;1.02;0.25;;;26.70;36.40;;;;;;5035467;28;20013;-88
2021/06/01 10:19:17;;;;;;;0.40;0.10;;;26.20;36.10;;;;;;5033267;28;20022;-87
2021/06/01 10:21:44;;;;;;;0.75;0.00;;;29.20;38.70;;;;;;5034298;28;20367;-88
2021/06/01 10:24:14;;;;;;;0.80;0.00;;;27.80;36.80;;;;;;5033925;28;20045;-87
2021/06/01 10:26:43;;;;;;;2.50;0.43;;;26.80;35.70;;;;;;5034095;28;20083;-87
2021/06/01 10:29:10;;;;;;;0.40;0.00;;;26.70;33.70;;;;;;5035261;28;20021;-87
2021/06/01 10:31:37;;;;;;;0.88;0.00;;;27.30;35.10;;;;;;5033117;28;20022;-87
2021/06/01 10:34:13;;;;;;;0.38;0.03;;;26.70;35.00;;;;;;5033456;28;20025;-88
2021/06/01 10:50:40;;;;;;;1.08;0.10;;;27.50;34.70;;;;;;5039430;28;20076;-88
2021/06/01 10:53:18;;;;;;;0.20;0.00;;;27.60;35.20;;;;;;5037937;28;20033;-87
2021/06/01 10:58:45;;;;;;;0.85;0.00;;;27.80;34.90;;;;;;5040811;28;20466;-87
2021/06/01 11:04:26;;;;;;;0.30;0.00;;;28.00;33.70;;;;;;5040186;28;20080;-86
2021/06/01 11:09:40;;;;;;;0.10;0.10;;;28.00;35.20;;;;;;5038632;28;20451;-87
2021/06/01 11:12:22;;;;;;;3.35;0.73;;;28.10;33.50;;;;;;5038636;28;20108;-87
2021/06/01 11:14:50;;;;;;;1.77;0.20;;;28.00;33.30;;;;;;5040281;28;20368;-87
2021/06/01 11:17:38;;;;;;;2.30;0.00;;;28.20;33.10;;;;;;5037556;28;20018;-87
2021/06/01 11:20:05;;;;;;;;;;;28.60;34.00;;;;;;5038456;28;20310;-86
2021/06/01 11:33:37;;;;;;;0.90;0.00;;;29.40;31.60;;;;;;5039590;28;20032;-88
2021/06/01 11:36:06;;;;;;;0.60;0.25;;;30.50;31.90;;;;;;5025265;28;20116;-88
2021/06/01 11:38:45;;;;;;;0.68;0.00;;;29.60;32.20;;;;;;5026160;28;20029;-88
2021/06/01 11:43:41;;;;;;;0.43;0.00;;;29.60;31.60;;;;;;5030654;28;20029;-86
2021/06/01 11:46:13;;;;;;;0.68;0.00;;;29.70;30.30;;;;;;5041066;28;20407;-87
2021/06/01 11:51:45;;;;;;;0.38;0.00;;;30.10;31.40;;;;;;5042682;28;20045;-88
2021/06/01 11:54:13;;;;;;;2.00;0.00;;;30.30;31.90;;;;;;5036207;28;20072;-89
2021/06/01 11:57:02;;;;;;;1.77;0.05;;;30.20;29.90;;;;;;5031755;28;20018;-90
2021/06/01 12:03:20;;;;;;;0.17;0.00;;;30.10;30.00;;;;;;5025233;28;20037;-90
2021/06/01 12:12:09;;;;;;;1.00;0.00;;;30.60;32.20;;;;;;5028302;28;20080;-88
2021/06/01 12:17:23;;;;;;;0.75;0.00;;;31.10;30.50;;;;;;5084027;22;20135;-77
2021/06/01 12:20:22;;;;;;;;;;;;;;;;;;;;;
2021/06/01 12:22:48;;;;;;;0.10;0.00;;;31.00;29.20;;;;;;5057969;28;20116;-81
2021/06/01 12:25:16;;;;;;;1.42;0.45;;;31.00;29.50;;;;;;5052871;28;20041;-78
2021/06/01 12:28:07;;;;;;;1.83;0.00;;;31.20;30.30;;;;;;5021330;28;20498;-81
2021/06/01 12:33:18;;;;;;;1.02;0.00;;;31.60;29.40;;;;;;5038462;28;20060;-80
2021/06/01 12:41:47;;;;;;;1.45;0.00;;;31.60;28.20;;;;;;5039208;28;20458;-81
2021/06/01 12:44:14;;;;;;;0.70;0.00;;;31.50;29.20;;;;;;5039524;28;20102;-80
2021/06/01 13:14:46;;;;;;;0.17;0.00;;;32.90;28.20;;;;;;5018498;28;20535;-80
2021/06/01 13:23:23;;;;;;;0.00;0.00;;;32.90;27.90;;;;;;5056027;28;20045;-80
2021/06/01 13:46:52;;;;;;;0.38;0.00;;;33.50;28.30;;;;;;5045012;28;20032;-79
2021/06/01 13:49:28;;;;;;;0.15;0.00;;;33.60;28.20;;;;;;5027812;28;20017;-80
2021/06/01 14:22:00;;;;;;;0.10;0.00;;;34.20;27.70;;;;;;5057586;23;20056;-78
2021/06/01 14:38:25;;;;;;;2.33;0.00;;;34.00;28.40;;;;;;5038972;22;20497;-80
2021/06/01 16:13:54;;;;;;;0.40;0.00;;;39.70;25.80;;;;;;5064637;28;20103;-79
2021/06/01 16:22:13;;;;;;;2.97;0.00;;;39.70;24.90;;;;;;5058818;28;20039;-80
2021/06/01 16:43:48;;;;;;;5.18;0.00;;;39.80;24.90;;;;;;5072008;28;20028;-81
2021/06/01 17:05:45;;;;;;;2.60;0.43;;;39.90;24.50;;;;;;5060887;28;20032;-80
2021/06/01 17:08:44;;;;;;;3.42;0.20;;;39.70;24.80;;;;;;5043451;28;20033;-78
2021/06/01 17:14:00;;;;;;;0.77;0.10;;;39.50;24.20;;;;;;5058640;28;20018;-79
2021/06/01 17:35:27;;;;;;;1.35;0.00;;;35.90;26.10;;;;;;5045281;28;20033;-79
2021/06/01 17:37:53;;;;;;;3.33;0.00;;;34.60;27.40;;;;;;5027365;28;20021;-79
2021/06/01 17:40:21;;;;;;;2.60;0.00;;;33.50;28.50;;;;;;5037681;28;20032;-79
2021/06/01 17:43:00;;;;;;;0.20;0.00;;;32.70;28.40;;;;;;5059545;28;20056;-80
2021/06/01 17:45:26;;;;;;;0.38;0.00;;;32.10;29.20;;;;;;5056496;28;20394;-80
2021/06/01 17:48:02;;;;;;;6.10;0.10;;;32.10;28.70;;;;;;5052552;28;20029;-78
2021/06/01 17:50:28;;;;;;;0.63;0.00;;;32.10;29.20;;;;;;5032012;28;20033;-80
2021/06/01 17:52:59;;;;;;;0.35;0.10;;;32.00;29.30;;;;;;5046056;28;20021;-78
2021/06/01 17:55:34;;;;;;;1.40;0.00;;;31.70;29.30;;;;;;5032011;28;20107;-78
2021/06/01 17:58:00;;;;;;;0.63;0.00;;;31.20;29.90;;;;;;5038522;23;20064;-80
2021/06/01 18:00:27;;;;;;;0.00;0.00;;;30.40;30.00;;;;;;5068396;28;20103;-81
2021/06/01 18:02:53;;;;;;;100.93;15.60;;;29.60;31.20;;;;;;5062876;28;20017;-77
2021/06/01 18:05:22;;;;;;;0.28;0.10;;;28.80;32.00;;;;;;5039718;28;20565;-78
2021/06/01 18:08:01;;;;;;;2.22;0.20;;;28.20;32.10;;;;;;5060694;28;20098;-77
2021/06/01 18:41:33;;;;;;;0.32;0.08;;;25.00;36.50;;;;;;5061619;28;20040;-81
2021/06/01 19:42:21;;;;;;;0.63;0.00;;;23.00;40.40;;;;;;5020187;28;20433;-79
2021/06/01 19:49:54;;;;;;;0.75;0.22;;;22.30;42.90;;;;;;5022287;28;20105;-77
2021/06/01 19:50:05;;;;;;;0.73;0.03;;;22.10;44.20;;;;;;5016637;28;20049;-76
2021/06/01 19:52:31;;;;;;;2.30;0.00;;;22.00;43.90;;;;;;5033440;22;20037;-76
2021/06/01 19:55:00;;;;;;;2.60;0.00;;;21.90;44.10;;;;;;5058211;22;20049;-78
2021/06/01 19:57:26;;;;;;;4.32;0.65;;;21.70;44.00;;;;;;5069592;22;20040;-75
2021/06/01 19:59:54;;;;;;;1.85;0.08;;;21.70;44.10;;;;;;5055361;28;20064;-76
2021/06/01 20:02:31;;;;;;;3.42;0.00;;;21.60;44.50;;;;;;5055536;28;20025;-75
2021/06/01 20:04:59;;;;;;;0.60;0.10;;;21.50;45.40;;;;;;5036768;28;20393;-75
2021/06/01 20:07:26;;;;;;;0.40;0.00;;;21.40;46.00;;;;;;5052274;28;20517;-76
2021/06/01 20:09:53;;;;;;;0.80;0.10;;;21.30;46.10;;;;;;5022246;28;20175;-75
2021/06/01 20:12:19;;;;;;;2.97;0.57;;;21.20;46.00;;;;;;5034589;28;20052;-75